Serian, Malaysia
Current Conditions -  °F | °C
As of 7:30 PM on Saturday 25 Oct 2014 (Local Time) from WBGG Reporting Station
Broken Clouds Broken Clouds  
Wind Chill: 79°   Ceiling: 30000
Heat Index: 82°   Visibility: 6mi
Dew Point: 75°   Wind: 3mph
Humidity: 89%   Direction: 260°W
Pressure: 29.85"   Gusts: NA
Location:  1.17°N, 110.56°E
Report Text: WBGG 251130Z 26003KT 9999 FEW015CB BKN300 26/24 Q1011 NOSIG
Loading
Personal Weather Stations






























Interactive Weather Map
Tropical Storm Tracking
New forecast layout! Learn more

10-Day Weather Forecast

Advertisements
Track Severe Weather on mobile